Time;durP1;ratioP1;P1;durP2;ratioP2;P2;SDS_P1;SDS_P2;PMS_P1;PMS_P2;Temp;Humidity;BMP_temperature;BMP_pressure;BME280_temperature;BME280_humidity;BME280_pressure;Samples;Min_cycle;Max_cycle;Signal;HPM_P1;HPM_P2
2022/07/26 00:02:15;;;;;;;1.13;0.40;;;25.50;63.80;;;;;;6203379;28;20054;-79
2022/07/26 00:05:17;;;;;;;1.63;0.47;;;25.50;64.10;;;;;;6203091;28;20061;-80
2022/07/26 00:08:19;;;;;;;2.15;0.22;;;25.50;64.40;;;;;;6203673;28;20526;-78
2022/07/26 00:11:24;;;;;;;1.58;0.22;;;25.40;64.60;;;;;;6203343;28;20061;-80
2022/07/26 00:14:26;;;;;;;1.83;0.47;;;25.40;64.70;;;;;;6203155;28;20133;-80
2022/07/26 00:17:27;;;;;;;0.80;0.63;;;25.40;65.00;;;;;;6202234;28;20057;-78
2022/07/26 00:20:29;;;;;;;1.52;0.82;;;25.40;65.10;;;;;;6203273;28;20566;-80
2022/07/26 00:23:31;;;;;;;0.82;0.30;;;25.40;65.30;;;;;;6203610;28;20152;-80
2022/07/26 00:26:49;;;;;;;0.50;0.43;;;25.30;65.30;;;;;;6202700;28;20053;-81
2022/07/26 00:29:51;;;;;;;3.33;0.30;;;25.30;65.80;;;;;;6226289;28;20049;-81
2022/07/26 00:32:52;;;;;;;2.58;1.55;;;25.30;66.00;;;;;;6226716;28;20053;-80
2022/07/26 00:35:54;;;;;;;0.95;0.55;;;25.30;66.20;;;;;;6226924;28;20578;-78
2022/07/26 00:38:56;;;;;;;1.98;0.32;;;25.20;66.60;;;;;;6226921;28;20415;-80
2022/07/26 00:41:59;;;;;;;3.05;0.40;;;25.20;66.80;;;;;;6228991;28;20050;-82
2022/07/26 00:45:01;;;;;;;1.77;0.43;;;25.10;67.20;;;;;;6234907;28;20046;-77
2022/07/26 00:48:04;;;;;;;1.17;0.40;;;25.00;67.50;;;;;;6243279;28;20104;-79
2022/07/26 00:51:06;;;;;;;5.85;0.80;;;25.00;68.10;;;;;;6229989;28;20046;-81
2022/07/26 00:54:07;;;;;;;4.18;0.68;;;25.00;68.50;;;;;;6229448;28;20057;-80
2022/07/26 00:57:11;;;;;;;4.38;0.70;;;24.90;68.50;;;;;;6228519;28;20042;-79
2022/07/26 01:00:17;;;;;;;3.15;0.60;;;24.90;69.00;;;;;;6227759;28;20514;-80
2022/07/26 01:03:19;;;;;;;0.98;0.50;;;24.70;69.20;;;;;;6226644;28;20049;-80
2022/07/26 01:06:21;;;;;;;1.48;0.43;;;24.70;69.30;;;;;;6227864;28;20044;-80
2022/07/26 01:09:23;;;;;;;4.40;0.93;;;24.70;69.30;;;;;;6227146;28;20060;-80
2022/07/26 01:12:26;;;;;;;3.40;0.55;;;24.80;69.30;;;;;;6226847;28;20056;-81
2022/07/26 01:15:28;;;;;;;1.67;0.57;;;24.80;69.50;;;;;;6227521;28;20491;-79
2022/07/26 01:18:30;;;;;;;2.35;0.40;;;24.70;69.70;;;;;;6226758;28;20049;-79
2022/07/26 01:21:33;;;;;;;1.25;0.45;;;24.70;70.60;;;;;;6226998;28;20054;-81
2022/07/26 01:24:35;;;;;;;2.42;0.68;;;24.70;71.30;;;;;;6226524;28;20535;-80
2022/07/26 01:27:38;;;;;;;0.25;0.25;;;24.60;71.60;;;;;;6227019;28;20057;-80
2022/07/26 01:30:40;;;;;;;3.63;0.68;;;24.60;72.20;;;;;;6226809;28;20528;-81
2022/07/26 01:33:42;;;;;;;0.63;0.60;;;24.50;75.00;;;;;;6226415;28;20422;-80
2022/07/26 01:36:45;;;;;;;2.33;0.93;;;24.50;77.50;;;;;;6217553;28;20045;-80
2022/07/26 01:39:47;;;;;;;0.73;0.50;;;24.30;79.20;;;;;;6223724;28;20046;-78
2022/07/26 01:42:49;;;;;;;3.90;0.52;;;24.10;79.90;;;;;;6226022;28;20061;-80
2022/07/26 01:45:51;;;;;;;0.88;0.50;;;23.90;81.30;;;;;;6225174;28;20062;-80
2022/07/26 01:48:52;;;;;;;1.30;0.68;;;23.70;82.90;;;;;;6225207;28;20064;-80
2022/07/26 01:51:55;;;;;;;2.83;0.50;;;23.40;84.30;;;;;;6225573;28;20072;-80
2022/07/26 01:54:57;;;;;;;0.93;0.57;;;23.10;85.30;;;;;;6226187;28;20060;-80
2022/07/26 01:57:59;;;;;;;1.70;0.40;;;23.00;86.50;;;;;;6225101;28;20053;-80
2022/07/26 02:01:00;;;;;;;1.00;0.43;;;22.90;87.70;;;;;;6225222;28;20504;-80
2022/07/26 02:04:02;;;;;;;1.83;0.55;;;22.80;88.10;;;;;;6224460;28;20595;-80
2022/07/26 02:07:05;;;;;;;4.03;1.48;;;22.80;88.80;;;;;;6225476;28;20054;-79
2022/07/26 02:10:09;;;;;;;1.05;0.60;;;22.70;89.40;;;;;;6225820;28;20668;-80
2022/07/26 02:13:10;;;;;;;2.10;0.55;;;22.70;90.10;;;;;;6225898;28;20056;-80
2022/07/26 02:16:14;;;;;;;0.40;0.28;;;22.70;90.40;;;;;;6230000;28;20665;-81
2022/07/26 02:19:16;;;;;;;3.13;0.57;;;22.70;90.20;;;;;;6230969;28;20060;-79
2022/07/26 02:22:20;;;;;;;0.93;0.60;;;22.70;90.60;;;;;;6229631;28;20404;-80
2022/07/26 02:25:21;;;;;;;2.53;0.45;;;22.70;90.10;;;;;;6228929;28;20050;-80
2022/07/26 02:28:23;;;;;;;4.05;1.35;;;22.70;90.00;;;;;;6229075;28;20049;-78
2022/07/26 02:31:25;;;;;;;0.73;0.45;;;22.70;90.10;;;;;;6230367;28;20080;-78
2022/07/26 02:34:27;;;;;;;0.65;0.47;;;22.70;90.10;;;;;;6228945;28;20054;-80
2022/07/26 02:37:30;;;;;;;1.55;1.15;;;22.70;90.10;;;;;;6224421;28;20046;-81
2022/07/26 02:40:32;;;;;;;2.25;0.60;;;22.70;90.00;;;;;;6228325;28;20400;-79
2022/07/26 02:43:34;;;;;;;1.98;0.70;;;22.70;90.00;;;;;;6228961;28;20060;-80
2022/07/26 02:46:36;;;;;;;1.33;0.40;;;22.70;89.70;;;;;;6228270;28;20054;-77
2022/07/26 02:49:38;;;;;;;2.22;0.95;;;22.70;89.60;;;;;;6228342;28;20041;-77
2022/07/26 02:52:41;;;;;;;4.53;0.77;;;22.70;89.80;;;;;;6228214;28;20284;-79
2022/07/26 02:55:43;;;;;;;4.03;0.80;;;22.70;90.00;;;;;;6229739;28;20419;-76
2022/07/26 02:58:44;;;;;;;1.20;0.80;;;22.70;90.00;;;;;;6228930;28;20050;-77
2022/07/26 03:01:46;;;;;;;1.20;0.47;;;22.60;90.00;;;;;;6228766;28;20568;-80
2022/07/26 03:04:48;;;;;;;1.23;0.50;;;22.50;90.10;;;;;;6228680;28;20064;-80
2022/07/26 03:07:51;;;;;;;1.42;0.57;;;22.40;90.20;;;;;;6251321;23;20521;-83
2022/07/26 03:10:52;;;;;;;0.82;0.40;;;22.30;90.40;;;;;;6203948;28;20054;-83
2022/07/26 03:13:54;;;;;;;3.67;0.80;;;22.20;90.40;;;;;;6203489;28;20046;-82
2022/07/26 03:16:56;;;;;;;1.58;0.60;;;22.20;90.60;;;;;;6204141;28;20049;-82
2022/07/26 03:19:57;;;;;;;4.72;0.80;;;22.30;90.70;;;;;;6205221;28;20065;-82
2022/07/26 03:23:01;;;;;;;1.60;0.70;;;22.30;90.70;;;;;;6203980;28;20051;-82
2022/07/26 03:26:02;;;;;;;2.10;0.57;;;22.30;90.50;;;;;;6203511;28;20053;-82
2022/07/26 03:29:04;;;;;;;5.40;1.80;;;22.30;90.50;;;;;;6203827;28;20046;-82
2022/07/26 03:32:07;;;;;;;1.95;0.57;;;22.30;90.60;;;;;;6204633;28;20053;-82
2022/07/26 03:35:09;;;;;;;2.00;0.98;;;22.30;90.60;;;;;;6204084;28;20487;-82
2022/07/26 03:38:12;;;;;;;0.85;0.68;;;22.30;90.60;;;;;;6203109;28;20050;-81
2022/07/26 03:41:14;;;;;;;0.70;0.60;;;22.20;90.70;;;;;;6203426;28;20057;-81
2022/07/26 03:44:15;;;;;;;2.22;1.00;;;22.20;90.80;;;;;;6203618;28;20057;-82
2022/07/26 03:47:17;;;;;;;7.30;1.45;;;22.10;91.00;;;;;;6204705;28;20061;-82
2022/07/26 03:50:19;;;;;;;1.45;1.00;;;22.10;91.10;;;;;;6204755;28;20046;-81
2022/07/26 03:53:22;;;;;;;5.10;0.95;;;22.00;91.20;;;;;;6203404;28;20057;-81
2022/07/26 03:56:31;;;;;;;2.00;0.73;;;22.00;91.30;;;;;;6203497;28;20056;-82
2022/07/26 03:59:33;;;;;;;3.22;0.80;;;21.90;91.40;;;;;;6203288;28;20058;-81
2022/07/26 04:02:34;;;;;;;4.75;0.63;;;21.80;91.60;;;;;;6203862;28;20049;-82
2022/07/26 04:05:36;;;;;;;1.92;0.80;;;21.70;91.80;;;;;;6202461;28;20562;-80
2022/07/26 04:08:39;;;;;;;4.13;0.90;;;21.60;92.00;;;;;;6203111;28;20046;-81
2022/07/26 04:11:42;;;;;;;1.40;0.52;;;21.60;92.20;;;;;;6205163;28;20050;-80
2022/07/26 04:14:44;;;;;;;2.05;0.88;;;21.60;92.20;;;;;;6204870;28;20061;-81
2022/07/26 04:17:47;;;;;;;1.48;0.80;;;21.60;92.40;;;;;;6203437;28;20047;-80
2022/07/26 04:20:48;;;;;;;1.50;0.85;;;21.70;92.20;;;;;;6203410;28;20420;-81
2022/07/26 04:23:51;;;;;;;0.80;0.60;;;21.70;92.20;;;;;;6204093;28;20050;-81
2022/07/26 04:26:53;;;;;;;3.22;0.80;;;21.70;92.20;;;;;;6208225;28;20050;-80
2022/07/26 04:29:55;;;;;;;3.63;1.00;;;21.70;92.20;;;;;;6209936;28;20050;-81
2022/07/26 04:32:57;;;;;;;0.85;0.68;;;21.70;92.20;;;;;;6207414;28;20365;-81
2022/07/26 04:35:59;;;;;;;1.85;1.15;;;21.70;92.20;;;;;;6206657;28;20065;-80
2022/07/26 04:39:02;;;;;;;2.22;0.90;;;21.70;92.30;;;;;;6208191;28;20116;-81
2022/07/26 04:42:04;;;;;;;1.98;0.68;;;21.70;92.20;;;;;;6214375;28;20129;-82
2022/07/26 04:45:06;;;;;;;3.20;0.68;;;21.90;92.10;;;;;;6211350;28;20082;-82
2022/07/26 04:48:08;;;;;;;3.25;0.82;;;22.10;91.80;;;;;;6211515;28;20058;-82
2022/07/26 04:51:10;;;;;;;4.65;0.82;;;22.10;91.50;;;;;;6212356;28;20415;-81
2022/07/26 04:54:14;;;;;;;0.95;0.63;;;22.20;91.20;;;;;;6210681;28;20080;-82
2022/07/26 04:57:16;;;;;;;2.88;0.80;;;22.40;90.90;;;;;;6212518;28;20054;-82
2022/07/26 05:00:23;;;;;;;4.20;0.70;;;22.70;90.40;;;;;;6208146;28;20050;-82
2022/07/26 05:03:25;;;;;;;0.90;0.53;;;22.90;89.80;;;;;;6204917;28;20061;-81
2022/07/26 05:06:26;;;;;;;1.58;0.77;;;22.90;89.10;;;;;;6203198;28;20530;-81
2022/07/26 05:09:29;;;;;;;4.05;0.60;;;23.10;88.30;;;;;;6212173;28;20329;-81
2022/07/26 05:12:31;;;;;;;5.07;0.80;;;23.20;87.30;;;;;;6214630;28;20042;-80
2022/07/26 05:15:35;;;;;;;3.03;0.60;;;23.30;86.50;;;;;;6209562;28;20050;-82
2022/07/26 05:18:36;;;;;;;3.42;1.15;;;23.50;85.30;;;;;;6207510;28;20050;-81
2022/07/26 05:21:38;;;;;;;3.53;0.85;;;23.60;84.00;;;;;;6209268;28;20057;-81
2022/07/26 05:24:41;;;;;;;5.05;0.93;;;23.60;83.50;;;;;;6207807;28;20046;-81
2022/07/26 05:27:43;;;;;;;3.28;0.60;;;23.40;83.50;;;;;;6207619;28;20121;-81
2022/07/26 05:30:45;;;;;;;3.83;0.70;;;23.30;83.50;;;;;;6206695;28;20050;-80
2022/07/26 05:33:46;;;;;;;2.60;0.82;;;23.30;83.40;;;;;;6205472;28;20247;-81
2022/07/26 05:36:48;;;;;;;1.35;0.43;;;23.60;81.60;;;;;;6205335;28;20054;-81
2022/07/26 05:39:51;;;;;;;1.55;0.68;;;23.60;81.10;;;;;;6208228;28;20046;-81
2022/07/26 05:42:53;;;;;;;0.90;0.60;;;23.40;81.10;;;;;;6204466;28;20054;-81
2022/07/26 05:45:56;;;;;;;5.03;0.73;;;23.20;81.00;;;;;;6203958;28;20519;-80
2022/07/26 05:48:58;;;;;;;1.17;0.60;;;23.30;81.00;;;;;;6204395;28;20499;-80
2022/07/26 05:51:59;;;;;;;4.25;0.93;;;23.50;80.00;;;;;;6209347;28;20058;-80
2022/07/26 05:55:02;;;;;;;5.85;0.77;;;23.60;78.80;;;;;;6204091;28;20050;-80
2022/07/26 05:58:04;;;;;;;0.50;0.30;;;23.60;77.90;;;;;;6205787;28;20042;-81
2022/07/26 06:01:06;;;;;;;4.00;0.77;;;23.90;76.80;;;;;;6206872;28;20072;-81
2022/07/26 06:04:09;;;;;;;1.88;0.80;;;24.30;73.80;;;;;;6205845;28;20086;-80
2022/07/26 06:07:10;;;;;;;4.72;0.80;;;24.20;74.00;;;;;;6208088;28;20140;-81
2022/07/26 06:10:14;;;;;;;6.30;0.70;;;24.10;74.20;;;;;;6206466;28;20050;-81
2022/07/26 06:13:16;;;;;;;4.65;0.73;;;24.00;74.30;;;;;;6206646;28;20042;-81
2022/07/26 06:16:17;;;;;;;2.70;0.40;;;24.20;72.40;;;;;;6206528;28;20084;-81
2022/07/26 06:19:19;;;;;;;4.40;0.65;;;24.00;70.80;;;;;;6204964;28;20105;-81
2022/07/26 06:22:21;;;;;;;2.22;0.60;;;23.90;71.10;;;;;;6203732;28;20397;-81
2022/07/26 06:25:24;;;;;;;1.15;0.45;;;23.80;71.40;;;;;;6206461;28;20046;-82
2022/07/26 06:28:26;;;;;;;4.38;0.82;;;23.90;70.60;;;;;;6206707;28;20050;-82
2022/07/26 06:31:27;;;;;;;3.28;0.47;;;23.80;70.20;;;;;;6209632;28;20522;-82
2022/07/26 06:34:29;;;;;;;4.05;0.77;;;23.90;70.10;;;;;;6208235;28;20056;-83
2022/07/26 06:37:31;;;;;;;2.45;0.60;;;24.10;69.40;;;;;;6210063;28;20053;-82
2022/07/26 06:40:35;;;;;;;1.52;0.47;;;24.40;69.00;;;;;;6191323;28;20050;-82
2022/07/26 06:43:36;;;;;;;1.40;0.70;;;24.80;66.80;;;;;;6231888;28;20046;-83
2022/07/26 06:46:38;;;;;;;4.07;1.00;;;25.20;65.60;;;;;;6228907;28;20048;-83
2022/07/26 06:49:40;;;;;;;5.30;0.47;;;25.30;63.80;;;;;;6213108;28;20061;-84
2022/07/26 06:52:41;;;;;;;0.98;0.50;;;25.50;63.30;;;;;;6206577;28;20046;-82
2022/07/26 06:55:44;;;;;;;6.07;1.08;;;25.70;62.80;;;;;;6204432;28;20420;-82
2022/07/26 06:58:47;;;;;;;4.30;0.68;;;26.00;61.90;;;;;;6204444;28;20051;-83
2022/07/26 07:01:48;;;;;;;4.78;0.63;;;26.10;60.00;;;;;;6205333;28;20057;-84
2022/07/26 07:04:50;;;;;;;3.25;0.60;;;26.00;60.00;;;;;;6205728;28;20062;-82
2022/07/26 07:07:52;;;;;;;1.98;0.57;;;25.80;60.10;;;;;;6206327;28;20048;-82
2022/07/26 07:10:55;;;;;;;6.40;0.85;;;25.60;60.70;;;;;;6208356;28;20054;-83
2022/07/26 07:13:57;;;;;;;3.40;0.68;;;25.70;61.20;;;;;;6211102;28;20054;-84
2022/07/26 07:16:59;;;;;;;1.42;0.60;;;25.90;60.70;;;;;;6207418;28;20467;-82
2022/07/26 07:20:03;;;;;;;3.13;0.47;;;26.00;59.60;;;;;;6203135;28;20057;-82
2022/07/26 07:23:05;;;;;;;1.00;0.45;;;25.90;59.60;;;;;;6203356;28;20050;-82
2022/07/26 07:26:08;;;;;;;1.85;0.47;;;26.10;58.80;;;;;;6202876;28;20058;-81
2022/07/26 07:29:13;;;;;;;1.75;0.63;;;26.20;58.20;;;;;;6202758;28;20622;-82
2022/07/26 07:32:15;;;;;;;2.10;0.60;;;26.30;58.20;;;;;;6203043;28;20172;-83
2022/07/26 07:35:17;;;;;;;5.03;0.65;;;26.30;57.90;;;;;;6204425;28;20061;-82
2022/07/26 07:38:19;;;;;;;4.40;0.68;;;26.70;57.30;;;;;;6204870;28;20046;-82
2022/07/26 07:41:22;;;;;;;0.40;0.22;;;26.90;56.40;;;;;;6203899;28;20051;-82
2022/07/26 07:44:23;;;;;;;2.88;0.40;;;27.00;56.30;;;;;;6204689;28;20419;-81
2022/07/26 07:47:25;;;;;;;1.27;0.25;;;26.80;55.60;;;;;;6197103;28;20051;-83
2022/07/26 07:50:27;;;;;;;2.15;0.45;;;26.70;56.30;;;;;;6198760;28;20424;-82
2022/07/26 07:53:29;;;;;;;2.28;0.40;;;26.90;55.70;;;;;;6201591;28;20043;-82
2022/07/26 07:56:32;;;;;;;2.80;0.60;;;26.80;55.10;;;;;;6201822;28;20053;-83
2022/07/26 07:59:34;;;;;;;4.65;0.50;;;26.80;55.50;;;;;;6202870;28;20050;-82
2022/07/26 08:02:35;;;;;;;2.92;0.60;;;26.80;55.40;;;;;;6203310;28;20054;-84
2022/07/26 08:05:37;;;;;;;1.50;0.35;;;27.00;54.70;;;;;;6200113;28;20081;-82
2022/07/26 08:08:39;;;;;;;6.68;2.83;;;27.10;55.10;;;;;;6202173;28;20053;-82
2022/07/26 08:11:42;;;;;;;3.80;0.50;;;27.20;54.40;;;;;;6201876;28;20054;-82
2022/07/26 08:14:43;;;;;;;1.63;0.40;;;27.30;53.80;;;;;;6201967;28;20053;-84
2022/07/26 08:17:45;;;;;;;2.63;0.28;;;27.50;52.50;;;;;;6201821;28;20057;-83
2022/07/26 08:20:47;;;;;;;13.10;0.95;;;27.60;52.30;;;;;;6205202;28;20046;-82
2022/07/26 08:23:49;;;;;;;2.10;0.35;;;27.90;51.30;;;;;;6203452;28;20065;-83
2022/07/26 08:26:52;;;;;;;3.80;0.47;;;28.10;50.90;;;;;;6204092;28;20058;-83
2022/07/26 08:29:54;;;;;;;4.28;0.40;;;28.00;50.70;;;;;;6202880;28;20058;-83
2022/07/26 08:32:56;;;;;;;1.85;0.20;;;27.90;50.90;;;;;;6204667;28;20065;-83
2022/07/26 08:35:57;;;;;;;3.35;0.28;;;28.00;50.50;;;;;;6204103;28;20061;-83
2022/07/26 08:38:59;;;;;;;2.90;0.45;;;28.20;50.00;;;;;;6202552;28;20055;-83
2022/07/26 08:42:04;;;;;;;0.77;0.38;;;28.40;49.50;;;;;;6202356;28;20053;-83
2022/07/26 08:45:06;;;;;;;1.38;0.38;;;28.50;49.20;;;;;;6202206;28;20060;-83
2022/07/26 08:48:08;;;;;;;1.10;0.20;;;29.90;47.60;;;;;;6202888;28;20054;-83
2022/07/26 08:51:10;;;;;;;6.28;0.40;;;32.60;43.80;;;;;;6204656;28;20431;-83
2022/07/26 08:54:13;;;;;;;7.05;0.70;;;34.40;40.00;;;;;;6203218;28;20050;-83
2022/07/26 08:57:17;;;;;;;10.27;0.40;;;34.60;39.10;;;;;;6203299;28;20046;-83
2022/07/26 09:00:21;;;;;;;0.93;0.20;;;35.50;37.90;;;;;;6203759;28;20691;-84
2022/07/26 09:03:25;;;;;;;2.38;0.38;;;35.80;36.70;;;;;;6203394;28;20146;-83
2022/07/26 09:06:27;;;;;;;4.25;0.38;;;34.90;37.10;;;;;;6202073;28;20053;-83
2022/07/26 09:09:29;;;;;;;4.03;0.32;;;35.40;37.40;;;;;;6232259;23;20042;-79
2022/07/26 09:12:32;;;;;;;0.90;0.20;;;35.60;36.50;;;;;;6223118;28;20057;-80
2022/07/26 09:15:34;;;;;;;1.40;0.20;;;34.70;37.30;;;;;;6223623;28;20050;-80
2022/07/26 09:18:36;;;;;;;3.47;0.20;;;33.80;38.10;;;;;;6222936;28;20046;-78
2022/07/26 09:21:39;;;;;;;5.43;0.57;;;34.30;37.70;;;;;;6208183;28;20057;-79
2022/07/26 09:24:42;;;;;;;1.13;0.40;;;35.80;37.00;;;;;;6196291;28;20073;-80
2022/07/26 09:27:45;;;;;;;0.28;0.15;;;37.10;34.80;;;;;;6198971;28;20060;-80
2022/07/26 09:30:52;;;;;;;0.50;0.20;;;37.80;33.50;;;;;;6197421;28;20054;-77
2022/07/26 09:33:54;;;;;;;1.50;0.50;;;36.90;34.00;;;;;;6213791;28;20046;-80
2022/07/26 09:36:56;;;;;;;5.82;0.40;;;37.70;33.80;;;;;;6211610;28;20576;-78
2022/07/26 09:39:59;;;;;;;0.95;0.40;;;37.20;33.10;;;;;;6204501;28;20058;-78
2022/07/26 09:43:05;;;;;;;1.35;0.28;;;35.60;34.50;;;;;;6226698;28;20060;-80
2022/07/26 09:46:09;;;;;;;0.63;0.25;;;36.00;34.90;;;;;;6202398;28;20504;-79
2022/07/26 09:49:17;;;;;;;2.70;0.40;;;36.90;33.90;;;;;;6197927;28;20680;-79
2022/07/26 09:52:21;;;;;;;3.58;0.30;;;36.10;34.20;;;;;;6199449;28;20047;-79
2022/07/26 09:55:23;;;;;;;4.70;0.50;;;36.20;34.40;;;;;;6199698;28;20054;-79
2022/07/26 09:58:27;;;;;;;2.30;0.35;;;35.60;34.90;;;;;;6221113;28;20705;-78
2022/07/26 10:01:29;;;;;;;2.05;0.38;;;34.30;35.50;;;;;;6226355;28;20511;-78
2022/07/26 10:04:31;;;;;;;1.50;0.38;;;34.10;36.20;;;;;;6224036;28;20132;-80
2022/07/26 10:07:33;;;;;;;5.47;0.38;;;34.60;35.30;;;;;;6222220;28;20131;-78
2022/07/26 10:10:47;;;;;;;2.35;0.30;;;33.90;35.70;;;;;;6225359;28;20042;-78
2022/07/26 10:13:50;;;;;;;4.25;0.20;;;33.00;36.70;;;;;;6196841;28;20053;-77
2022/07/26 10:16:52;;;;;;;1.00;0.38;;;33.40;36.80;;;;;;6197113;28;20042;-79
2022/07/26 10:19:55;;;;;;;1.60;0.20;;;33.10;36.90;;;;;;6214669;28;20050;-79
2022/07/26 10:22:57;;;;;;;2.58;0.22;;;32.50;37.50;;;;;;6221209;28;20069;-77
2022/07/26 10:25:59;;;;;;;0.75;0.13;;;32.10;38.00;;;;;;6220487;28;20046;-79
2022/07/26 10:29:25;;;;;;;3.20;0.30;;;32.10;37.40;;;;;;6220932;28;20046;-79
2022/07/26 10:32:28;;;;;;;1.02;0.20;;;32.20;37.10;;;;;;6218778;28;20057;-79
2022/07/26 10:35:31;;;;;;;1.55;0.45;;;32.20;37.10;;;;;;6220457;28;20466;-78
2022/07/26 10:38:33;;;;;;;1.67;0.30;;;32.30;37.80;;;;;;6228140;28;20054;-80
2022/07/26 10:41:38;;;;;;;1.10;0.10;;;32.30;38.00;;;;;;6228652;28;20042;-80
2022/07/26 10:44:43;;;;;;;2.55;0.75;;;32.40;37.90;;;;;;6227503;28;20045;-78
2022/07/26 10:48:11;;;;;;;3.95;0.40;;;32.60;37.40;;;;;;6226814;28;20423;-78
2022/07/26 10:51:25;;;;;;;3.97;0.35;;;32.80;37.10;;;;;;6228144;28;20050;-78
2022/07/26 10:54:27;;;;;;;0.47;0.15;;;32.90;36.90;;;;;;6225430;28;20427;-79
2022/07/26 10:57:32;;;;;;;1.63;0.32;;;33.00;37.00;;;;;;6224700;28;20042;-80
2022/07/26 11:00:35;;;;;;;1.45;0.20;;;33.10;36.80;;;;;;6224250;28;20042;-79
2022/07/26 11:03:38;;;;;;;0.55;0.10;;;33.30;36.40;;;;;;6224911;28;20190;-77
2022/07/26 11:06:40;;;;;;;1.23;0.35;;;33.40;35.80;;;;;;6224134;28;20054;-78
2022/07/26 11:09:42;;;;;;;1.27;0.20;;;33.50;36.10;;;;;;6223620;28;20046;-78
2022/07/26 11:12:44;;;;;;;2.97;0.20;;;33.60;35.60;;;;;;6223695;28;20042;-79
2022/07/26 11:15:48;;;;;;;2.10;0.20;;;33.60;35.60;;;;;;6224815;28;20054;-78
2022/07/26 11:18:51;;;;;;;3.70;0.38;;;33.90;36.10;;;;;;6205115;28;20054;-77
2022/07/26 11:21:54;;;;;;;0.20;0.17;;;34.20;35.90;;;;;;6224580;28;20151;-79
2022/07/26 11:24:56;;;;;;;0.82;0.20;;;34.40;34.90;;;;;;6211067;28;20053;-76
2022/07/26 11:28:02;;;;;;;1.73;0.20;;;34.60;35.00;;;;;;6206186;28;20060;-77
2022/07/26 11:31:07;;;;;;;3.80;0.60;;;34.80;34.70;;;;;;6199521;28;20049;-80
2022/07/26 11:34:16;;;;;;;0.55;0.13;;;35.00;34.30;;;;;;6212868;28;20523;-79
2022/07/26 11:37:18;;;;;;;1.42;0.45;;;34.90;34.00;;;;;;6223134;28;20523;-77
2022/07/26 11:40:39;;;;;;;0.30;0.15;;;34.60;34.00;;;;;;6223081;28;20412;-78
2022/07/26 11:43:42;;;;;;;1.38;0.20;;;34.10;34.30;;;;;;6223317;28;20060;-78
2022/07/26 11:46:47;;;;;;;1.73;0.30;;;34.00;33.80;;;;;;6222199;28;20050;-76
2022/07/26 11:49:49;;;;;;;1.00;0.20;;;34.00;33.80;;;;;;6222901;28;20052;-77
2022/07/26 11:52:52;;;;;;;3.70;0.35;;;34.30;35.30;;;;;;6222803;28;20054;-78
2022/07/26 11:55:54;;;;;;;1.45;0.30;;;34.10;34.60;;;;;;6222920;28;20057;-77
2022/07/26 11:58:57;;;;;;;2.58;0.25;;;33.70;34.60;;;;;;6223291;28;20054;-78
2022/07/26 12:02:01;;;;;;;2.10;0.38;;;33.50;34.70;;;;;;6222823;28;20703;-79
2022/07/26 12:05:14;;;;;;;1.25;0.32;;;33.40;35.30;;;;;;6222397;28;20046;-77
2022/07/26 12:08:15;;;;;;;5.10;0.20;;;33.60;35.10;;;;;;6222532;28;20058;-77
2022/07/26 12:11:19;;;;;;;2.53;0.38;;;34.20;34.30;;;;;;6222830;28;20199;-78
2022/07/26 12:14:25;;;;;;;0.45;0.20;;;34.60;33.50;;;;;;6221875;28;20075;-76
2022/07/26 12:17:30;;;;;;;3.22;0.32;;;35.00;33.10;;;;;;6222418;28;20121;-78
2022/07/26 12:20:32;;;;;;;0.25;0.10;;;35.20;32.60;;;;;;6222235;28;20046;-76
2022/07/26 12:23:41;;;;;;;2.30;0.30;;;35.00;32.30;;;;;;6222868;28;20054;-76
2022/07/26 12:26:43;;;;;;;3.53;0.63;;;34.80;32.50;;;;;;6222086;28;20041;-78
2022/07/26 12:29:46;;;;;;;10.32;3.58;;;34.70;33.50;;;;;;6222568;28;20046;-76
2022/07/26 12:32:53;;;;;;;1.00;0.60;;;35.00;33.60;;;;;;6222345;28;20121;-78
2022/07/26 12:36:00;;;;;;;1.52;0.38;;;35.10;32.90;;;;;;6221648;28;20053;-78
2022/07/26 12:39:02;;;;;;;1.23;0.20;;;34.70;33.20;;;;;;6222162;28;20519;-77
2022/07/26 12:42:23;;;;;;;2.78;0.45;;;34.60;33.20;;;;;;6222225;28;20061;-77
2022/07/26 12:45:27;;;;;;;4.40;0.60;;;35.00;33.10;;;;;;6221417;28;20045;-78
2022/07/26 12:48:30;;;;;;;2.10;0.32;;;35.00;32.40;;;;;;6221806;28;20056;-79
2022/07/26 12:51:33;;;;;;;1.50;0.20;;;34.90;33.20;;;;;;6222252;28;20050;-77
2022/07/26 12:54:34;;;;;;;1.15;0.22;;;35.10;33.20;;;;;;6221544;28;20049;-77
2022/07/26 12:57:36;;;;;;;1.00;0.25;;;35.20;33.10;;;;;;6196905;28;20049;-78
2022/07/26 13:00:38;;;;;;;1.73;0.40;;;35.10;33.00;;;;;;6196711;28;20416;-77
2022/07/26 13:03:41;;;;;;;1.02;0.50;;;35.30;33.10;;;;;;6197498;28;20065;-78
2022/07/26 13:06:43;;;;;;;1.98;0.43;;;35.40;32.70;;;;;;6196824;28;20507;-77
2022/07/26 13:09:46;;;;;;;0.77;0.20;;;35.10;32.90;;;;;;6196752;28;20388;-75
2022/07/26 13:12:48;;;;;;;4.25;0.38;;;34.70;33.20;;;;;;6210112;28;20037;-79
2022/07/26 13:15:49;;;;;;;7.20;0.80;;;34.30;33.30;;;;;;6245176;28;20053;-77
2022/07/26 13:18:52;;;;;;;6.35;0.40;;;34.20;33.40;;;;;;6204711;28;20069;-78
2022/07/26 13:21:55;;;;;;;1.65;0.45;;;34.60;33.40;;;;;;6213804;28;20054;-78
2022/07/26 13:24:57;;;;;;;4.35;0.50;;;34.90;33.00;;;;;;6220572;28;20072;-77
2022/07/26 13:27:59;;;;;;;2.85;0.65;;;34.80;33.30;;;;;;6221290;28;20046;-78
2022/07/26 13:31:00;;;;;;;1.02;0.30;;;34.70;33.60;;;;;;6221051;28;20161;-79
2022/07/26 13:34:04;;;;;;;4.47;0.30;;;34.60;33.10;;;;;;6220209;28;20698;-78
2022/07/26 13:37:05;;;;;;;1.85;0.35;;;34.60;32.80;;;;;;6220802;28;20061;-77
2022/07/26 13:40:08;;;;;;;3.13;0.35;;;34.50;33.30;;;;;;6220520;28;20053;-78
2022/07/26 13:43:10;;;;;;;6.05;0.52;;;34.70;33.50;;;;;;6220984;28;20050;-77
2022/07/26 13:46:12;;;;;;;3.75;0.40;;;34.90;34.30;;;;;;6220102;28;20046;-78
2022/07/26 13:49:15;;;;;;;2.38;0.40;;;35.10;33.40;;;;;;6208251;28;20419;-77
2022/07/26 13:52:17;;;;;;;0.40;0.20;;;35.30;32.70;;;;;;6217155;28;20073;-79
2022/07/26 13:55:19;;;;;;;0.47;0.13;;;35.60;31.50;;;;;;6220540;28;20122;-77
2022/07/26 13:58:21;;;;;;;1.15;0.52;;;35.60;31.50;;;;;;6220320;28;20575;-77
2022/07/26 14:01:22;;;;;;;0.40;0.20;;;35.70;31.90;;;;;;6220758;28;20050;-78
2022/07/26 14:04:26;;;;;;;0.98;0.30;;;35.70;31.80;;;;;;6221214;28;20056;-77
2022/07/26 14:07:28;;;;;;;2.42;0.28;;;35.50;31.90;;;;;;6193511;28;20047;-76
2022/07/26 14:10:30;;;;;;;4.03;0.43;;;35.30;32.60;;;;;;6221095;28;20050;-77
2022/07/26 14:13:31;;;;;;;1.83;0.28;;;35.20;32.90;;;;;;6227668;28;20041;-78
2022/07/26 14:16:34;;;;;;;1.40;0.40;;;35.30;32.50;;;;;;6233412;28;20507;-77
2022/07/26 14:19:37;;;;;;;2.47;0.38;;;35.40;32.30;;;;;;6211479;28;20046;-77
2022/07/26 14:22:38;;;;;;;1.05;0.30;;;35.40;32.80;;;;;;6224545;28;20049;-77
2022/07/26 14:25:40;;;;;;;4.22;0.80;;;35.50;31.70;;;;;;6224605;28;20057;-76
2022/07/26 14:28:42;;;;;;;1.70;0.52;;;35.70;31.80;;;;;;6224764;28;20396;-76
2022/07/26 14:31:44;;;;;;;2.58;0.50;;;35.80;31.50;;;;;;6224910;28;20046;-77
2022/07/26 14:34:47;;;;;;;2.00;0.20;;;35.80;31.70;;;;;;6224210;28;20046;-77
2022/07/26 14:37:49;;;;;;;1.35;0.22;;;36.00;30.80;;;;;;6224662;28;20050;-77
2022/07/26 14:40:50;;;;;;;2.63;0.22;;;36.20;30.80;;;;;;6224495;28;20057;-76
2022/07/26 14:43:52;;;;;;;0.82;0.22;;;36.30;30.50;;;;;;6201914;28;20046;-77
2022/07/26 14:46:54;;;;;;;0.40;0.10;;;36.20;30.90;;;;;;6200570;28;20050;-77
2022/07/26 14:49:57;;;;;;;0.28;0.15;;;36.20;31.10;;;;;;6192272;28;20052;-78
2022/07/26 14:52:59;;;;;;;2.08;0.63;;;36.20;31.20;;;;;;6200155;28;20051;-77
2022/07/26 14:56:01;;;;;;;1.45;0.20;;;36.20;31.00;;;;;;6199393;28;20061;-77
2022/07/26 14:59:02;;;;;;;0.63;0.20;;;36.20;31.00;;;;;;6200315;28;20061;-77
2022/07/26 15:02:04;;;;;;;1.38;0.30;;;36.10;30.00;;;;;;6201802;28;20054;-77
2022/07/26 15:05:08;;;;;;;5.80;0.52;;;35.70;30.30;;;;;;6201053;28;20046;-77
2022/07/26 15:08:10;;;;;;;2.97;0.30;;;35.60;30.60;;;;;;6199954;28;20500;-77
2022/07/26 15:11:12;;;;;;;0.68;0.30;;;35.60;31.30;;;;;;6199527;28;20541;-78
2022/07/26 15:14:14;;;;;;;1.75;0.40;;;35.60;31.80;;;;;;6200984;28;20053;-77
2022/07/26 15:17:15;;;;;;;1.15;0.40;;;35.60;31.10;;;;;;6210422;28;20152;-77
2022/07/26 15:20:19;;;;;;;2.40;0.40;;;35.70;31.00;;;;;;6198629;28;20051;-77
2022/07/26 15:23:20;;;;;;;1.38;0.30;;;35.80;30.90;;;;;;6198675;28;20058;-77
2022/07/26 15:26:22;;;;;;;3.05;0.30;;;35.80;30.80;;;;;;6219646;28;20046;-77
2022/07/26 15:29:24;;;;;;;3.78;0.35;;;35.80;30.40;;;;;;6223119;28;20052;-77
2022/07/26 15:32:26;;;;;;;1.92;0.20;;;35.80;30.50;;;;;;6223533;28;20053;-78
2022/07/26 15:35:29;;;;;;;0.75;0.30;;;35.60;30.90;;;;;;6223076;28;20136;-76
2022/07/26 15:38:31;;;;;;;0.95;0.30;;;35.40;31.40;;;;;;6222778;28;20042;-76
2022/07/26 15:41:33;;;;;;;1.83;0.30;;;35.20;31.30;;;;;;6223199;28;20053;-77
2022/07/26 15:44:37;;;;;;;2.70;0.30;;;34.80;31.40;;;;;;6222582;28;20075;-77
2022/07/26 15:47:39;;;;;;;3.78;0.32;;;34.70;31.80;;;;;;6223185;28;20054;-77
2022/07/26 15:50:44;;;;;;;2.00;0.93;;;34.70;32.10;;;;;;6222212;28;20038;-77